sensor_id;sensor_type;location;lat;lon;timestamp;temperature;humidity
74666;DHT22;71408;50.106;8.694;2023-10-13T00:00:27;23.20;58.00
74666;DHT22;71408;50.106;8.694;2023-10-13T00:02:58;23.20;58.00
74666;DHT22;71408;50.106;8.694;2023-10-13T00:05:29;23.20;57.90
74666;DHT22;71408;50.106;8.694;2023-10-13T00:08:01;23.20;57.90
74666;DHT22;71408;50.106;8.694;2023-10-13T00:10:31;23.20;57.90
74666;DHT22;71408;50.106;8.694;2023-10-13T00:12:56;23.20;57.90
74666;DHT22;71408;50.106;8.694;2023-10-13T00:15:40;23.20;57.90
74666;DHT22;71408;50.106;8.694;2023-10-13T00:18:12;23.20;58.00
74666;DHT22;71408;50.106;8.694;2023-10-13T00:20:43;23.20;57.90
74666;DHT22;71408;50.106;8.694;2023-10-13T00:23:15;23.20;57.90
74666;DHT22;71408;50.106;8.694;2023-10-13T00:25:47;23.20;57.90
74666;DHT22;71408;50.106;8.694;2023-10-13T00:28:18;23.20;57.90
74666;DHT22;71408;50.106;8.694;2023-10-13T00:30:50;23.20;57.90
74666;DHT22;71408;50.106;8.694;2023-10-13T00:33:17;23.20;57.90
74666;DHT22;71408;50.106;8.694;2023-10-13T00:35:49;23.20;57.90
74666;DHT22;71408;50.106;8.694;2023-10-13T00:38:17;23.20;57.90
74666;DHT22;71408;50.106;8.694;2023-10-13T00:40:44;23.20;57.90
74666;DHT22;71408;50.106;8.694;2023-10-13T00:43:10;23.20;58.00
74666;DHT22;71408;50.106;8.694;2023-10-13T00:46:04;23.20;58.00
74666;DHT22;71408;50.106;8.694;2023-10-13T00:48:32;23.20;57.90
74666;DHT22;71408;50.106;8.694;2023-10-13T00:51:02;23.20;58.00
74666;DHT22;71408;50.106;8.694;2023-10-13T00:53:47;23.20;57.90
74666;DHT22;71408;50.106;8.694;2023-10-13T00:56:14;23.20;58.00
74666;DHT22;71408;50.106;8.694;2023-10-13T00:58:47;23.20;58.00
74666;DHT22;71408;50.106;8.694;2023-10-13T01:01:33;23.20;58.00
74666;DHT22;71408;50.106;8.694;2023-10-13T01:04:00;23.20;58.00
74666;DHT22;71408;50.106;8.694;2023-10-13T01:06:26;23.20;57.90
74666;DHT22;71408;50.106;8.694;2023-10-13T01:09:08;23.20;58.00
74666;DHT22;71408;50.106;8.694;2023-10-13T01:11:42;23.10;58.00
74666;DHT22;71408;50.106;8.694;2023-10-13T01:14:12;23.10;58.00
74666;DHT22;71408;50.106;8.694;2023-10-13T01:16:38;23.10;58.10
74666;DHT22;71408;50.106;8.694;2023-10-13T01:19:10;23.10;58.00
74666;DHT22;71408;50.106;8.694;2023-10-13T01:21:37;23.10;58.00
74666;DHT22;71408;50.106;8.694;2023-10-13T01:24:06;23.10;58.00
74666;DHT22;71408;50.106;8.694;2023-10-13T01:26:35;23.10;58.00
74666;DHT22;71408;50.106;8.694;2023-10-13T01:29:04;23.10;57.90
74666;DHT22;71408;50.106;8.694;2023-10-13T01:31:37;23.10;57.90
74666;DHT22;71408;50.106;8.694;2023-10-13T01:34:03;23.10;58.00
74666;DHT22;71408;50.106;8.694;2023-10-13T01:36:28;23.10;58.00
74666;DHT22;71408;50.106;8.694;2023-10-13T01:39:00;23.10;58.00
74666;DHT22;71408;50.106;8.694;2023-10-13T01:41:26;23.10;58.00
74666;DHT22;71408;50.106;8.694;2023-10-13T01:43:52;23.10;57.90
74666;DHT22;71408;50.106;8.694;2023-10-13T01:46:17;23.10;58.00
74666;DHT22;71408;50.106;8.694;2023-10-13T01:48:47;23.10;58.00
74666;DHT22;71408;50.106;8.694;2023-10-13T01:51:12;23.10;58.00
74666;DHT22;71408;50.106;8.694;2023-10-13T01:53:38;23.10;58.00
74666;DHT22;71408;50.106;8.694;2023-10-13T01:56:07;23.10;58.10
74666;DHT22;71408;50.106;8.694;2023-10-13T01:58:37;23.10;58.00
74666;DHT22;71408;50.106;8.694;2023-10-13T02:01:02;23.10;58.00
74666;DHT22;71408;50.106;8.694;2023-10-13T02:03:32;23.10;58.00
74666;DHT22;71408;50.106;8.694;2023-10-13T02:05:58;23.10;58.00
74666;DHT22;71408;50.106;8.694;2023-10-13T02:08:29;23.10;58.00
74666;DHT22;71408;50.106;8.694;2023-10-13T02:10:56;23.10;58.00
74666;DHT22;71408;50.106;8.694;2023-10-13T02:13:22;23.10;58.00
74666;DHT22;71408;50.106;8.694;2023-10-13T02:15:48;23.10;57.90
74666;DHT22;71408;50.106;8.694;2023-10-13T02:18:19;23.10;58.00
74666;DHT22;71408;50.106;8.694;2023-10-13T02:21:06;23.10;58.10
74666;DHT22;71408;50.106;8.694;2023-10-13T02:23:41;23.10;58.10
74666;DHT22;71408;50.106;8.694;2023-10-13T02:26:25;23.10;58.00
74666;DHT22;71408;50.106;8.694;2023-10-13T02:29:00;23.10;58.00
74666;DHT22;71408;50.106;8.694;2023-10-13T02:31:30;23.10;58.10
74666;DHT22;71408;50.106;8.694;2023-10-13T02:33:55;23.10;58.00
74666;DHT22;71408;50.106;8.694;2023-10-13T02:36:21;23.10;58.00
74666;DHT22;71408;50.106;8.694;2023-10-13T02:39:04;23.00;58.00
74666;DHT22;71408;50.106;8.694;2023-10-13T02:41:39;23.00;58.10
74666;DHT22;71408;50.106;8.694;2023-10-13T02:44:05;23.00;58.10
74666;DHT22;71408;50.106;8.694;2023-10-13T02:46:32;23.00;58.10
74666;DHT22;71408;50.106;8.694;2023-10-13T02:49:01;23.00;58.10
74666;DHT22;71408;50.106;8.694;2023-10-13T02:51:46;23.00;58.10
74666;DHT22;71408;50.106;8.694;2023-10-13T02:54:12;23.00;58.00
74666;DHT22;71408;50.106;8.694;2023-10-13T02:56:43;23.00;58.10
74666;DHT22;71408;50.106;8.694;2023-10-13T02:59:30;23.00;58.00
74666;DHT22;71408;50.106;8.694;2023-10-13T03:02:06;23.00;58.10
74666;DHT22;71408;50.106;8.694;2023-10-13T03:04:49;23.00;58.10
74666;DHT22;71408;50.106;8.694;2023-10-13T03:07:15;23.00;58.10
74666;DHT22;71408;50.106;8.694;2023-10-13T03:09:44;23.00;58.10
74666;DHT22;71408;50.106;8.694;2023-10-13T03:12:16;23.00;58.10
74666;DHT22;71408;50.106;8.694;2023-10-13T03:14:42;23.00;58.20
74666;DHT22;71408;50.106;8.694;2023-10-13T03:17:07;23.00;58.20
74666;DHT22;71408;50.106;8.694;2023-10-13T03:19:42;23.00;58.80
74666;DHT22;71408;50.106;8.694;2023-10-13T03:22:11;23.00;58.20
74666;DHT22;71408;50.106;8.694;2023-10-13T03:24:37;23.00;58.20
74666;DHT22;71408;50.106;8.694;2023-10-13T03:27:13;23.00;58.20
74666;DHT22;71408;50.106;8.694;2023-10-13T03:29:41;23.00;58.20
74666;DHT22;71408;50.106;8.694;2023-10-13T03:32:09;23.00;58.20
74666;DHT22;71408;50.106;8.694;2023-10-13T03:34:40;23.00;58.10
74666;DHT22;71408;50.106;8.694;2023-10-13T03:37:15;23.00;58.10
74666;DHT22;71408;50.106;8.694;2023-10-13T03:39:44;23.00;58.20
74666;DHT22;71408;50.106;8.694;2023-10-13T03:42:10;23.00;58.10
74666;DHT22;71408;50.106;8.694;2023-10-13T03:44:44;23.00;58.20
74666;DHT22;71408;50.106;8.694;2023-10-13T03:47:11;23.00;58.20
74666;DHT22;71408;50.106;8.694;2023-10-13T03:49:44;23.00;58.20
74666;DHT22;71408;50.106;8.694;2023-10-13T03:52:09;23.00;58.20
74666;DHT22;71408;50.106;8.694;2023-10-13T03:54:39;23.00;58.20
74666;DHT22;71408;50.106;8.694;2023-10-13T03:57:07;23.00;58.20
74666;DHT22;71408;50.106;8.694;2023-10-13T03:59:36;23.00;58.20
74666;DHT22;71408;50.106;8.694;2023-10-13T04:02:02;23.00;58.20
74666;DHT22;71408;50.106;8.694;2023-10-13T04:04:31;23.00;58.20
74666;DHT22;71408;50.106;8.694;2023-10-13T04:07:02;22.90;58.20
74666;DHT22;71408;50.106;8.694;2023-10-13T04:09:45;22.90;58.20
74666;DHT22;71408;50.106;8.694;2023-10-13T04:12:34;22.90;58.20
74666;DHT22;71408;50.106;8.694;2023-10-13T04:15:18;23.00;58.20
74666;DHT22;71408;50.106;8.694;2023-10-13T04:17:46;22.90;58.20
74666;DHT22;71408;50.106;8.694;2023-10-13T04:20:13;22.90;58.90
74666;DHT22;71408;50.106;8.694;2023-10-13T04:22:46;22.90;58.20
74666;DHT22;71408;50.106;8.694;2023-10-13T04:25:32;22.90;58.20
74666;DHT22;71408;50.106;8.694;2023-10-13T04:28:20;22.90;58.30
74666;DHT22;71408;50.106;8.694;2023-10-13T04:31:03;22.90;58.30
74666;DHT22;71408;50.106;8.694;2023-10-13T04:33:37;22.90;58.30
74666;DHT22;71408;50.106;8.694;2023-10-13T04:36:16;22.90;58.20
74666;DHT22;71408;50.106;8.694;2023-10-13T04:38:48;22.90;58.20
74666;DHT22;71408;50.106;8.694;2023-10-13T04:41:43;22.90;58.20
74666;DHT22;71408;50.106;8.694;2023-10-13T04:44:35;22.90;58.20
74666;DHT22;71408;50.106;8.694;2023-10-13T04:47:26;22.90;58.20
74666;DHT22;71408;50.106;8.694;2023-10-13T04:49:54;22.90;58.20
74666;DHT22;71408;50.106;8.694;2023-10-13T04:52:25;22.90;58.20
74666;DHT22;71408;50.106;8.694;2023-10-13T04:55:09;22.90;58.20
74666;DHT22;71408;50.106;8.694;2023-10-13T04:57:42;22.90;58.20
74666;DHT22;71408;50.106;8.694;2023-10-13T05:00:18;22.90;58.20
74666;DHT22;71408;50.106;8.694;2023-10-13T05:02:53;22.90;58.20
74666;DHT22;71408;50.106;8.694;2023-10-13T05:05:36;22.90;58.30
74666;DHT22;71408;50.106;8.694;2023-10-13T05:08:18;22.90;58.30
74666;DHT22;71408;50.106;8.694;2023-10-13T05:11:03;22.90;58.30
74666;DHT22;71408;50.106;8.694;2023-10-13T05:13:47;22.90;58.20
74666;DHT22;71408;50.106;8.694;2023-10-13T05:16:31;22.90;58.20
74666;DHT22;71408;50.106;8.694;2023-10-13T05:19:16;22.90;58.20
74666;DHT22;71408;50.106;8.694;2023-10-13T05:22:00;22.90;58.30
74666;DHT22;71408;50.106;8.694;2023-10-13T05:24:44;22.90;58.20
74666;DHT22;71408;50.106;8.694;2023-10-13T05:27:28;22.90;58.20
74666;DHT22;71408;50.106;8.694;2023-10-13T05:30:12;22.90;58.20
74666;DHT22;71408;50.106;8.694;2023-10-13T05:32:57;22.90;58.20
74666;DHT22;71408;50.106;8.694;2023-10-13T05:35:41;22.90;58.20
74666;DHT22;71408;50.106;8.694;2023-10-13T05:38:25;22.90;58.20
74666;DHT22;71408;50.106;8.694;2023-10-13T05:41:09;22.90;58.20
74666;DHT22;71408;50.106;8.694;2023-10-13T05:43:54;22.90;58.20
74666;DHT22;71408;50.106;8.694;2023-10-13T05:46:38;22.90;58.20
74666;DHT22;71408;50.106;8.694;2023-10-13T05:49:12;22.90;58.30
74666;DHT22;71408;50.106;8.694;2023-10-13T05:52:04;22.90;58.20
74666;DHT22;71408;50.106;8.694;2023-10-13T05:54:44;22.90;58.90
74666;DHT22;71408;50.106;8.694;2023-10-13T05:57:28;22.90;58.30
74666;DHT22;71408;50.106;8.694;2023-10-13T06:00:13;22.90;58.20
74666;DHT22;71408;50.106;8.694;2023-10-13T06:02:57;22.90;58.20
74666;DHT22;71408;50.106;8.694;2023-10-13T06:05:41;22.90;58.20
74666;DHT22;71408;50.106;8.694;2023-10-13T06:08:25;22.90;58.10
74666;DHT22;71408;50.106;8.694;2023-10-13T06:11:09;22.90;58.20
74666;DHT22;71408;50.106;8.694;2023-10-13T06:13:54;22.90;58.10
74666;DHT22;71408;50.106;8.694;2023-10-13T06:16:38;22.90;58.00
74666;DHT22;71408;50.106;8.694;2023-10-13T06:19:22;22.90;58.00
74666;DHT22;71408;50.106;8.694;2023-10-13T06:22:06;22.90;58.10
74666;DHT22;71408;50.106;8.694;2023-10-13T06:24:50;22.90;58.10
74666;DHT22;71408;50.106;8.694;2023-10-13T06:27:35;22.90;58.10
74666;DHT22;71408;50.106;8.694;2023-10-13T06:30:19;22.90;58.10
74666;DHT22;71408;50.106;8.694;2023-10-13T06:32:44;22.90;58.10
74666;DHT22;71408;50.106;8.694;2023-10-13T06:35:11;22.90;58.10
74666;DHT22;71408;50.106;8.694;2023-10-13T06:37:49;22.80;58.00
74666;DHT22;71408;50.106;8.694;2023-10-13T06:40:15;22.80;58.10
74666;DHT22;71408;50.106;8.694;2023-10-13T06:42:54;22.80;58.10
74666;DHT22;71408;50.106;8.694;2023-10-13T06:45:24;22.80;58.10
74666;DHT22;71408;50.106;8.694;2023-10-13T06:47:53;22.80;58.10
74666;DHT22;71408;50.106;8.694;2023-10-13T06:50:21;22.80;58.10
74666;DHT22;71408;50.106;8.694;2023-10-13T06:52:49;22.80;58.10
74666;DHT22;71408;50.106;8.694;2023-10-13T06:55:20;22.80;58.10
74666;DHT22;71408;50.106;8.694;2023-10-13T06:58:03;22.80;58.10
74666;DHT22;71408;50.106;8.694;2023-10-13T07:00:32;22.80;58.20
74666;DHT22;71408;50.106;8.694;2023-10-13T07:03:00;22.90;58.20
74666;DHT22;71408;50.106;8.694;2023-10-13T07:05:38;22.90;58.20
74666;DHT22;71408;50.106;8.694;2023-10-13T07:08:07;22.90;58.40
74666;DHT22;71408;50.106;8.694;2023-10-13T07:10:34;22.90;58.40
74666;DHT22;71408;50.106;8.694;2023-10-13T07:13:13;22.90;58.50
74666;DHT22;71408;50.106;8.694;2023-10-13T07:15:42;22.90;59.30
74666;DHT22;71408;50.106;8.694;2023-10-13T07:18:19;23.00;58.50
74666;DHT22;71408;50.106;8.694;2023-10-13T07:20:48;23.00;58.70
74666;DHT22;71408;50.106;8.694;2023-10-13T07:23:14;23.00;59.10
74666;DHT22;71408;50.106;8.694;2023-10-13T07:25:50;23.00;58.50
74666;DHT22;71408;50.106;8.694;2023-10-13T07:28:16;23.00;58.70
74666;DHT22;71408;50.106;8.694;2023-10-13T07:30:42;23.00;58.70
74666;DHT22;71408;50.106;8.694;2023-10-13T07:33:17;23.00;58.80
74666;DHT22;71408;50.106;8.694;2023-10-13T07:35:45;23.00;58.60
74666;DHT22;71408;50.106;8.694;2023-10-13T07:38:15;23.10;58.60
74666;DHT22;71408;50.106;8.694;2023-10-13T07:40:42;23.10;58.80
74666;DHT22;71408;50.106;8.694;2023-10-13T07:43:07;23.10;58.60
74666;DHT22;71408;50.106;8.694;2023-10-13T07:45:36;23.10;58.70
74666;DHT22;71408;50.106;8.694;2023-10-13T07:48:03;23.10;58.70
74666;DHT22;71408;50.106;8.694;2023-10-13T07:50:59;23.20;58.80
74666;DHT22;71408;50.106;8.694;2023-10-13T07:53:31;23.30;58.10
74666;DHT22;71408;50.106;8.694;2023-10-13T07:56:00;23.40;58.20
74666;DHT22;71408;50.106;8.694;2023-10-13T07:58:30;23.40;58.20
74666;DHT22;71408;50.106;8.694;2023-10-13T08:00:57;23.30;58.10
74666;DHT22;71408;50.106;8.694;2023-10-13T08:03:40;23.30;58.20
74666;DHT22;71408;50.106;8.694;2023-10-13T08:06:12;23.30;58.30
74666;DHT22;71408;50.106;8.694;2023-10-13T08:08:51;23.30;58.40
74666;DHT22;71408;50.106;8.694;2023-10-13T08:11:20;23.30;58.30
74666;DHT22;71408;50.106;8.694;2023-10-13T08:14:04;23.30;58.20
74666;DHT22;71408;50.106;8.694;2023-10-13T08:16:49;23.30;58.20
74666;DHT22;71408;50.106;8.694;2023-10-13T08:19:16;23.40;58.60
74666;DHT22;71408;50.106;8.694;2023-10-13T08:21:45;23.40;58.30
74666;DHT22;71408;50.106;8.694;2023-10-13T08:24:36;23.40;58.10
74666;DHT22;71408;50.106;8.694;2023-10-13T08:27:05;23.50;58.10
74666;DHT22;71408;50.106;8.694;2023-10-13T08:29:54;23.40;58.30
74666;DHT22;71408;50.106;8.694;2023-10-13T08:32:28;23.40;58.30
74666;DHT22;71408;50.106;8.694;2023-10-13T08:34:55;23.40;58.20
74666;DHT22;71408;50.106;8.694;2023-10-13T08:37:41;23.40;58.30
74666;DHT22;71408;50.106;8.694;2023-10-13T08:40:27;23.50;58.20
74666;DHT22;71408;50.106;8.694;2023-10-13T08:43:31;23.50;58.10
74666;DHT22;71408;50.106;8.694;2023-10-13T08:46:08;23.50;58.20
74666;DHT22;71408;50.106;8.694;2023-10-13T08:48:34;23.50;58.00
74666;DHT22;71408;50.106;8.694;2023-10-13T08:51:01;23.50;58.10
74666;DHT22;71408;50.106;8.694;2023-10-13T08:53:35;23.50;57.90
74666;DHT22;71408;50.106;8.694;2023-10-13T08:56:11;23.60;57.90
74666;DHT22;71408;50.106;8.694;2023-10-13T08:58:46;23.60;57.90
74666;DHT22;71408;50.106;8.694;2023-10-13T09:01:38;23.60;57.90
74666;DHT22;71408;50.106;8.694;2023-10-13T09:04:17;23.60;57.90
74666;DHT22;71408;50.106;8.694;2023-10-13T09:06:47;23.60;57.90
74666;DHT22;71408;50.106;8.694;2023-10-13T09:09:26;23.60;58.00
74666;DHT22;71408;50.106;8.694;2023-10-13T09:12:14;23.60;57.60
74666;DHT22;71408;50.106;8.694;2023-10-13T09:14:40;23.60;57.90
74666;DHT22;71408;50.106;8.694;2023-10-13T09:17:22;23.60;57.60
74666;DHT22;71408;50.106;8.694;2023-10-13T09:20:07;23.60;57.80
74666;DHT22;71408;50.106;8.694;2023-10-13T09:23:00;23.60;57.80
74666;DHT22;71408;50.106;8.694;2023-10-13T09:25:37;23.70;57.60
74666;DHT22;71408;50.106;8.694;2023-10-13T09:28:13;23.60;57.60
74666;DHT22;71408;50.106;8.694;2023-10-13T09:30:50;23.60;57.60
74666;DHT22;71408;50.106;8.694;2023-10-13T09:33:25;23.70;57.30
74666;DHT22;71408;50.106;8.694;2023-10-13T09:35:58;23.70;57.60
74666;DHT22;71408;50.106;8.694;2023-10-13T09:38:25;23.70;57.60
74666;DHT22;71408;50.106;8.694;2023-10-13T09:40:51;23.60;57.60
74666;DHT22;71408;50.106;8.694;2023-10-13T09:43:23;23.70;57.60
74666;DHT22;71408;50.106;8.694;2023-10-13T09:45:50;23.70;57.60
74666;DHT22;71408;50.106;8.694;2023-10-13T09:48:36;23.60;57.60
74666;DHT22;71408;50.106;8.694;2023-10-13T09:51:05;23.60;57.60
74666;DHT22;71408;50.106;8.694;2023-10-13T09:53:36;23.70;57.50
74666;DHT22;71408;50.106;8.694;2023-10-13T09:56:12;23.70;57.50
74666;DHT22;71408;50.106;8.694;2023-10-13T09:58:51;23.70;57.30
74666;DHT22;71408;50.106;8.694;2023-10-13T10:01:22;23.70;57.30
74666;DHT22;71408;50.106;8.694;2023-10-13T10:04:05;23.70;57.20
74666;DHT22;71408;50.106;8.694;2023-10-13T10:06:51;23.70;57.10
74666;DHT22;71408;50.106;8.694;2023-10-13T10:09:16;23.70;57.10
74666;DHT22;71408;50.106;8.694;2023-10-13T10:12:28;23.80;57.30
74666;DHT22;71408;50.106;8.694;2023-10-13T10:17:41;23.70;57.20
74666;DHT22;71408;50.106;8.694;2023-10-13T10:20:07;23.70;57.10
74666;DHT22;71408;50.106;8.694;2023-10-13T10:22:40;23.70;57.00
74666;DHT22;71408;50.106;8.694;2023-10-13T10:25:12;23.80;56.90
74666;DHT22;71408;50.106;8.694;2023-10-13T10:27:57;23.80;56.90
74666;DHT22;71408;50.106;8.694;2023-10-13T10:30:24;23.80;57.00
74666;DHT22;71408;50.106;8.694;2023-10-13T10:32:53;23.80;56.90
74666;DHT22;71408;50.106;8.694;2023-10-13T10:35:22;23.80;56.80
74666;DHT22;71408;50.106;8.694;2023-10-13T10:37:48;23.90;56.90
74666;DHT22;71408;50.106;8.694;2023-10-13T10:40:14;23.90;56.80
74666;DHT22;71408;50.106;8.694;2023-10-13T10:42:58;23.80;56.70
74666;DHT22;71408;50.106;8.694;2023-10-13T10:45:29;23.90;56.70
74666;DHT22;71408;50.106;8.694;2023-10-13T10:47:59;23.90;56.50
74666;DHT22;71408;50.106;8.694;2023-10-13T10:50:25;23.90;56.50
74666;DHT22;71408;50.106;8.694;2023-10-13T10:53:01;23.90;56.40
74666;DHT22;71408;50.106;8.694;2023-10-13T10:55:26;23.90;56.40
74666;DHT22;71408;50.106;8.694;2023-10-13T10:58:00;23.90;56.50
74666;DHT22;71408;50.106;8.694;2023-10-13T11:00:32;23.90;56.50
74666;DHT22;71408;50.106;8.694;2023-10-13T11:03:11;23.90;56.50
74666;DHT22;71408;50.106;8.694;2023-10-13T11:05:44;23.90;57.00
74666;DHT22;71408;50.106;8.694;2023-10-13T11:08:20;23.90;56.20
74666;DHT22;71408;50.106;8.694;2023-10-13T11:10:50;24.00;56.30
74666;DHT22;71408;50.106;8.694;2023-10-13T11:13:15;24.00;56.30
74666;DHT22;71408;50.106;8.694;2023-10-13T11:15:47;24.10;56.10
74666;DHT22;71408;50.106;8.694;2023-10-13T11:18:14;24.10;55.90
74666;DHT22;71408;50.106;8.694;2023-10-13T11:20:46;24.10;55.80
74666;DHT22;71408;50.106;8.694;2023-10-13T11:23:12;24.10;56.00
74666;DHT22;71408;50.106;8.694;2023-10-13T11:25:38;24.10;56.10
74666;DHT22;71408;50.106;8.694;2023-10-13T11:28:13;24.00;56.10
74666;DHT22;71408;50.106;8.694;2023-10-13T11:30:54;24.00;56.20
74666;DHT22;71408;50.106;8.694;2023-10-13T11:33:44;24.00;56.20
74666;DHT22;71408;50.106;8.694;2023-10-13T11:36:11;24.00;56.20
74666;DHT22;71408;50.106;8.694;2023-10-13T11:38:47;24.00;56.20
74666;DHT22;71408;50.106;8.694;2023-10-13T11:41:17;24.00;56.20
74666;DHT22;71408;50.106;8.694;2023-10-13T11:43:47;24.10;56.20
74666;DHT22;71408;50.106;8.694;2023-10-13T11:46:31;24.00;56.20
74666;DHT22;71408;50.106;8.694;2023-10-13T11:49:00;24.10;56.20
74666;DHT22;71408;50.106;8.694;2023-10-13T11:51:31;24.10;56.30
74666;DHT22;71408;50.106;8.694;2023-10-13T11:53:58;24.10;56.10
74666;DHT22;71408;50.106;8.694;2023-10-13T11:56:23;24.10;56.20
74666;DHT22;71408;50.106;8.694;2023-10-13T11:58:49;24.20;56.20
74666;DHT22;71408;50.106;8.694;2023-10-13T12:01:15;24.20;56.20
74666;DHT22;71408;50.106;8.694;2023-10-13T12:03:49;24.20;56.70
74666;DHT22;71408;50.106;8.694;2023-10-13T12:06:34;24.20;56.10
74666;DHT22;71408;50.106;8.694;2023-10-13T12:09:20;24.30;56.20
74666;DHT22;71408;50.106;8.694;2023-10-13T12:12:05;24.30;56.30
74666;DHT22;71408;50.106;8.694;2023-10-13T12:14:33;24.20;56.20
74666;DHT22;71408;50.106;8.694;2023-10-13T12:17:20;24.20;56.30
74666;DHT22;71408;50.106;8.694;2023-10-13T12:20:02;24.20;56.40
74666;DHT22;71408;50.106;8.694;2023-10-13T12:22:31;24.30;56.40
74666;DHT22;71408;50.106;8.694;2023-10-13T12:25:16;24.20;56.30
74666;DHT22;71408;50.106;8.694;2023-10-13T12:27:59;24.30;56.40
74666;DHT22;71408;50.106;8.694;2023-10-13T12:30:38;24.30;56.30
74666;DHT22;71408;50.106;8.694;2023-10-13T12:33:22;24.30;56.40
74666;DHT22;71408;50.106;8.694;2023-10-13T12:36:00;24.30;56.30
74666;DHT22;71408;50.106;8.694;2023-10-13T12:38:56;24.30;56.30
74666;DHT22;71408;50.106;8.694;2023-10-13T12:41:33;24.30;56.20
74666;DHT22;71408;50.106;8.694;2023-10-13T12:44:18;24.30;56.00
74666;DHT22;71408;50.106;8.694;2023-10-13T12:47:02;24.30;56.00
74666;DHT22;71408;50.106;8.694;2023-10-13T12:49:46;24.40;56.00
74666;DHT22;71408;50.106;8.694;2023-10-13T12:52:15;24.30;56.00
74666;DHT22;71408;50.106;8.694;2023-10-13T12:54:53;24.30;55.90
74666;DHT22;71408;50.106;8.694;2023-10-13T12:57:31;24.30;56.10
74666;DHT22;71408;50.106;8.694;2023-10-13T12:59:57;24.40;56.10
74666;DHT22;71408;50.106;8.694;2023-10-13T13:02:24;24.40;56.10
74666;DHT22;71408;50.106;8.694;2023-10-13T13:04:52;24.30;56.10
74666;DHT22;71408;50.106;8.694;2023-10-13T13:07:40;24.30;56.10
74666;DHT22;71408;50.106;8.694;2023-10-13T13:10:12;24.40;56.20
74666;DHT22;71408;50.106;8.694;2023-10-13T13:12:39;24.40;56.20
74666;DHT22;71408;50.106;8.694;2023-10-13T13:15:05;24.30;56.20
74666;DHT22;71408;50.106;8.694;2023-10-13T13:17:36;24.30;56.20
74666;DHT22;71408;50.106;8.694;2023-10-13T13:20:07;24.30;56.00
74666;DHT22;71408;50.106;8.694;2023-10-13T13:22:52;24.40;56.10
74666;DHT22;71408;50.106;8.694;2023-10-13T13:25:19;24.40;56.10
74666;DHT22;71408;50.106;8.694;2023-10-13T13:27:50;24.40;56.10
74666;DHT22;71408;50.106;8.694;2023-10-13T13:30:16;24.40;56.00
74666;DHT22;71408;50.106;8.694;2023-10-13T13:32:45;24.40;56.00
74666;DHT22;71408;50.106;8.694;2023-10-13T13:35:11;24.40;56.00
74666;DHT22;71408;50.106;8.694;2023-10-13T13:37:39;24.40;56.00
74666;DHT22;71408;50.106;8.694;2023-10-13T13:40:05;24.40;55.80
74666;DHT22;71408;50.106;8.694;2023-10-13T13:42:40;24.40;56.00
74666;DHT22;71408;50.106;8.694;2023-10-13T13:45:11;24.40;56.00
74666;DHT22;71408;50.106;8.694;2023-10-13T13:47:36;24.40;56.00
74666;DHT22;71408;50.106;8.694;2023-10-13T13:50:02;24.40;55.90
74666;DHT22;71408;50.106;8.694;2023-10-13T13:52:32;24.40;55.90
74666;DHT22;71408;50.106;8.694;2023-10-13T13:55:11;24.40;55.90
74666;DHT22;71408;50.106;8.694;2023-10-13T13:57:43;24.40;55.90
74666;DHT22;71408;50.106;8.694;2023-10-13T14:00:09;24.40;56.00
74666;DHT22;71408;50.106;8.694;2023-10-13T14:02:34;24.40;56.00
74666;DHT22;71408;50.106;8.694;2023-10-13T14:05:00;24.40;56.00
74666;DHT22;71408;50.106;8.694;2023-10-13T14:07:27;24.30;55.90
74666;DHT22;71408;50.106;8.694;2023-10-13T14:09:58;24.30;56.00
74666;DHT22;71408;50.106;8.694;2023-10-13T14:12:32;24.30;56.00
74666;DHT22;71408;50.106;8.694;2023-10-13T14:15:15;24.30;55.90
74666;DHT22;71408;50.106;8.694;2023-10-13T14:17:49;24.30;56.00
74666;DHT22;71408;50.106;8.694;2023-10-13T14:20:15;24.30;56.10
74666;DHT22;71408;50.106;8.694;2023-10-13T14:22:46;24.30;56.10
74666;DHT22;71408;50.106;8.694;2023-10-13T14:25:13;24.30;56.20
74666;DHT22;71408;50.106;8.694;2023-10-13T14:27:42;24.30;56.30
74666;DHT22;71408;50.106;8.694;2023-10-13T14:30:08;24.30;56.20
74666;DHT22;71408;50.106;8.694;2023-10-13T14:32:33;24.30;56.30
74666;DHT22;71408;50.106;8.694;2023-10-13T14:35:05;24.20;56.10
74666;DHT22;71408;50.106;8.694;2023-10-13T14:37:40;24.20;56.10
74666;DHT22;71408;50.106;8.694;2023-10-13T14:40:06;24.20;56.00
74666;DHT22;71408;50.106;8.694;2023-10-13T14:42:36;24.30;56.10
74666;DHT22;71408;50.106;8.694;2023-10-13T14:45:08;24.20;56.10
74666;DHT22;71408;50.106;8.694;2023-10-13T14:47:42;24.20;56.10
74666;DHT22;71408;50.106;8.694;2023-10-13T14:50:07;24.20;56.10
74666;DHT22;71408;50.106;8.694;2023-10-13T14:52:39;24.20;56.00
74666;DHT22;71408;50.106;8.694;2023-10-13T14:55:05;24.20;56.10
74666;DHT22;71408;50.106;8.694;2023-10-13T14:57:32;24.20;56.10
74666;DHT22;71408;50.106;8.694;2023-10-13T15:00:03;24.20;56.00
74666;DHT22;71408;50.106;8.694;2023-10-13T15:02:28;24.20;56.00
74666;DHT22;71408;50.106;8.694;2023-10-13T15:04:54;24.20;56.00
74666;DHT22;71408;50.106;8.694;2023-10-13T15:07:19;24.20;56.00
74666;DHT22;71408;50.106;8.694;2023-10-13T15:09:46;24.20;56.00
74666;DHT22;71408;50.106;8.694;2023-10-13T15:12:12;24.20;56.00
74666;DHT22;71408;50.106;8.694;2023-10-13T15:14:38;24.20;56.10
74666;DHT22;71408;50.106;8.694;2023-10-13T15:17:04;24.10;56.00
74666;DHT22;71408;50.106;8.694;2023-10-13T15:19:31;24.20;56.00
74666;DHT22;71408;50.106;8.694;2023-10-13T15:22:02;24.10;55.90
74666;DHT22;71408;50.106;8.694;2023-10-13T15:24:27;24.10;55.90
74666;DHT22;71408;50.106;8.694;2023-10-13T15:26:53;24.20;56.00
74666;DHT22;71408;50.106;8.694;2023-10-13T15:29:26;24.10;56.00
74666;DHT22;71408;50.106;8.694;2023-10-13T15:32:00;24.10;56.10
74666;DHT22;71408;50.106;8.694;2023-10-13T15:34:35;24.10;56.00
74666;DHT22;71408;50.106;8.694;2023-10-13T15:37:02;24.20;55.90
74666;DHT22;71408;50.106;8.694;2023-10-13T15:39:30;24.10;55.80
74666;DHT22;71408;50.106;8.694;2023-10-13T15:41:57;24.10;55.60
74666;DHT22;71408;50.106;8.694;2023-10-13T15:44:27;24.10;55.30
74666;DHT22;71408;50.106;8.694;2023-10-13T15:46:56;24.10;55.00
74666;DHT22;71408;50.106;8.694;2023-10-13T15:49:22;24.10;54.70
74666;DHT22;71408;50.106;8.694;2023-10-13T15:51:48;24.10;54.60
74666;DHT22;71408;50.106;8.694;2023-10-13T15:54:14;24.10;54.50
74666;DHT22;71408;50.106;8.694;2023-10-13T15:56:45;24.10;54.10
74666;DHT22;71408;50.106;8.694;2023-10-13T15:59:11;24.10;54.00
74666;DHT22;71408;50.106;8.694;2023-10-13T16:01:37;24.10;53.70
74666;DHT22;71408;50.106;8.694;2023-10-13T16:04:09;24.10;53.70
74666;DHT22;71408;50.106;8.694;2023-10-13T16:06:39;24.10;53.60
74666;DHT22;71408;50.106;8.694;2023-10-13T16:09:05;24.10;53.80
74666;DHT22;71408;50.106;8.694;2023-10-13T16:11:39;24.10;54.00